createdAt,value
2023-04-27T00:00:39.524Z,1.27
2023-04-27T00:03:08.767Z,1.30
2023-04-27T00:05:39.482Z,1.27
2023-04-27T00:08:08.239Z,1.17
2023-04-27T00:10:36.828Z,1.15
2023-04-27T00:13:06.150Z,1.13
2023-04-27T00:15:35.877Z,1.42
2023-04-27T00:18:04.582Z,1.48
2023-04-27T00:20:33.915Z,0.98
2023-04-27T00:23:02.028Z,1.30
2023-04-27T00:25:30.604Z,1.27
2023-04-27T00:27:58.719Z,1.10
2023-04-27T00:30:26.854Z,1.20
2023-04-27T00:32:56.598Z,1.20
2023-04-27T00:35:24.731Z,1.15
2023-04-27T00:37:55.074Z,1.10
2023-04-27T00:40:23.221Z,1.42
2023-04-27T00:42:51.554Z,1.10
2023-04-27T00:45:19.680Z,1.45
2023-04-27T00:47:48.226Z,1.20
2023-04-27T00:50:20.906Z,1.25
2023-04-27T00:52:49.345Z,1.33
2023-04-27T00:55:17.703Z,1.15
2023-04-27T00:57:45.805Z,1.20
2023-04-27T01:00:15.032Z,1.30
2023-04-27T01:02:43.602Z,1.30
2023-04-27T01:05:12.652Z,1.42
2023-04-27T01:07:42.447Z,1.42
2023-04-27T01:10:11.769Z,1.27
2023-04-27T01:12:40.140Z,1.45
2023-04-27T01:15:09.544Z,1.13
2023-04-27T01:17:38.211Z,1.27
2023-04-27T01:20:10.771Z,1.00
2023-04-27T01:22:39.770Z,1.70
2023-04-27T01:25:10.131Z,1.42
2023-04-27T01:27:38.247Z,1.50
2023-04-27T01:30:08.491Z,1.35
2023-04-27T01:32:38.994Z,1.38
2023-04-27T01:35:08.004Z,1.25
2023-04-27T01:37:36.951Z,1.30
2023-04-27T01:40:06.748Z,1.27
2023-04-27T01:42:36.355Z,1.50
2023-04-27T01:45:05.109Z,1.30
2023-04-27T01:47:33.504Z,1.40
2023-04-27T01:50:01.759Z,1.58
2023-04-27T01:59:04.516Z,1.35
2023-04-27T02:01:32.940Z,1.23
2023-04-27T02:04:01.244Z,1.38
2023-04-27T02:06:30.172Z,1.38
2023-04-27T02:08:58.332Z,1.08
2023-04-27T02:11:27.561Z,1.27
2023-04-27T02:13:55.655Z,1.65
2023-04-27T02:16:25.298Z,1.48
2023-04-27T02:18:54.973Z,1.40
2023-04-27T02:21:23.617Z,1.33
2023-04-27T02:23:51.874Z,1.98
2023-04-27T02:26:20.658Z,1.38
2023-04-27T02:28:50.375Z,1.90
2023-04-27T02:31:18.994Z,1.42
2023-04-27T02:33:48.859Z,1.80
2023-04-27T02:36:17.353Z,1.48
2023-04-27T02:38:46.285Z,1.50
2023-04-27T02:41:14.407Z,1.65
2023-04-27T02:43:42.811Z,1.80
2023-04-27T02:46:10.905Z,1.52
2023-04-27T02:48:38.998Z,1.75
2023-04-27T02:51:09.009Z,1.80
2023-04-27T02:53:37.389Z,1.92
2023-04-27T02:56:06.014Z,1.70
2023-04-27T02:58:34.396Z,1.70
2023-04-27T03:01:02.643Z,1.58
2023-04-27T03:03:30.919Z,1.90
2023-04-27T03:05:59.119Z,1.73
2023-04-27T03:08:29.209Z,1.75
2023-04-27T03:10:57.595Z,1.92
2023-04-27T03:13:25.743Z,1.75
2023-04-27T03:15:54.286Z,1.63
2023-04-27T03:18:22.378Z,1.63
2023-04-27T03:20:50.854Z,1.95
2023-04-27T03:23:18.956Z,2.05
2023-04-27T03:25:49.616Z,2.00
2023-04-27T03:28:17.825Z,1.70
2023-04-27T03:30:46.648Z,1.55
2023-04-27T03:33:14.913Z,2.35
2023-04-27T03:35:43.321Z,1.90
2023-04-27T03:38:11.765Z,1.85
2023-04-27T03:40:40.087Z,1.80
2023-04-27T03:43:09.555Z,2.30
2023-04-27T03:45:37.917Z,2.33
2023-04-27T03:48:07.081Z,1.80
2023-04-27T03:50:35.491Z,2.10
2023-04-27T03:53:03.576Z,2.25
2023-04-27T03:55:32.084Z,2.45
2023-04-27T03:58:00.712Z,1.90
2023-04-27T04:00:30.276Z,2.40
2023-04-27T04:02:59.051Z,2.10
2023-04-27T04:05:27.283Z,2.63
2023-04-27T04:07:56.235Z,2.40
2023-04-27T04:10:24.591Z,1.85
2023-04-27T04:12:52.792Z,2.20
2023-04-27T04:15:21.338Z,2.40
2023-04-27T04:17:51.378Z,2.08
2023-04-27T04:20:19.881Z,2.28
2023-04-27T04:22:48.038Z,2.50
2023-04-27T04:25:16.442Z,2.33
2023-04-27T04:27:44.728Z,2.33
2023-04-27T04:30:13.666Z,2.50
2023-04-27T04:32:41.945Z,2.53
2023-04-27T04:35:12.374Z,2.40
2023-04-27T04:37:41.139Z,2.20
2023-04-27T04:40:10.641Z,2.70
2023-04-27T04:42:39.386Z,2.03
2023-04-27T04:45:08.619Z,2.65
2023-04-27T04:47:37.073Z,2.17
2023-04-27T04:50:05.689Z,2.60
2023-04-27T04:52:35.276Z,2.72
2023-04-27T04:55:03.506Z,2.25
2023-04-27T04:57:32.423Z,2.90
2023-04-27T05:00:01.951Z,2.25
2023-04-27T05:02:30.191Z,2.13
2023-04-27T05:04:58.671Z,2.75
2023-04-27T05:07:27.165Z,2.30
2023-04-27T05:09:57.663Z,2.70
2023-04-27T05:12:25.804Z,2.67
2023-04-27T05:14:54.356Z,2.47
2023-04-27T05:17:22.494Z,3.13
2023-04-27T05:19:50.686Z,3.17
2023-04-27T05:22:18.771Z,3.47
2023-04-27T05:24:46.917Z,2.35
2023-04-27T05:27:16.915Z,2.80
2023-04-27T05:29:45.551Z,2.47
2023-04-27T05:32:13.620Z,2.33
2023-04-27T05:34:43.793Z,2.78
2023-04-27T05:37:11.942Z,2.55
2023-04-27T05:39:40.686Z,2.40
2023-04-27T05:42:09.075Z,3.47
2023-04-27T05:44:38.587Z,2.50
2023-04-27T05:47:07.344Z,2.90
2023-04-27T05:49:36.009Z,3.03
2023-04-27T05:52:04.797Z,2.90
2023-04-27T05:54:32.937Z,3.30
2023-04-27T05:57:01.354Z,3.47
2023-04-27T05:59:29.408Z,3.20
2023-04-27T06:01:58.993Z,3.65
2023-04-27T06:04:27.667Z,3.58
2023-04-27T06:06:56.364Z,3.33
2023-04-27T06:09:24.918Z,3.30
2023-04-27T06:11:53.406Z,3.40
2023-04-27T06:14:21.750Z,3.25
2023-04-27T06:16:49.853Z,2.53
2023-04-27T06:19:19.584Z,3.50
2023-04-27T06:21:47.724Z,3.25
2023-04-27T06:24:15.959Z,2.88
2023-04-27T06:26:44.079Z,3.13
2023-04-27T06:29:12.386Z,2.40
2023-04-27T06:31:41.593Z,3.22
2023-04-27T06:34:09.754Z,2.33
2023-04-27T06:36:39.234Z,3.00
2023-04-27T06:39:07.301Z,2.70
2023-04-27T06:41:35.471Z,2.60
2023-04-27T06:44:03.562Z,3.10
2023-04-27T06:46:31.760Z,2.65
2023-04-27T06:49:00.136Z,2.80
2023-04-27T06:51:28.431Z,2.05
2023-04-27T06:53:58.434Z,2.25
2023-04-27T06:56:26.504Z,2.08
2023-04-27T06:58:54.586Z,1.88
2023-04-27T07:01:22.982Z,2.00
2023-04-27T07:03:51.673Z,1.80
2023-04-27T07:06:20.287Z,2.10
2023-04-27T07:08:48.377Z,1.92
2023-04-27T07:11:18.135Z,2.20
2023-04-27T07:13:46.238Z,2.70
2023-04-27T07:16:14.347Z,1.98
2023-04-27T07:18:43.591Z,2.00
2023-04-27T07:21:12.885Z,1.60
2023-04-27T07:23:41.461Z,1.98
2023-04-27T07:26:10.367Z,1.65
2023-04-27T07:28:40.210Z,1.77
2023-04-27T07:31:09.200Z,1.40
2023-04-27T07:33:38.155Z,1.60
2023-04-27T07:36:06.777Z,1.55
2023-04-27T07:38:35.640Z,1.42
2023-04-27T07:41:04.562Z,1.48
2023-04-27T07:43:33.172Z,1.30
2023-04-27T07:46:03.658Z,1.20
2023-04-27T07:48:32.720Z,1.15
2023-04-27T07:51:00.805Z,1.00
2023-04-27T07:53:28.913Z,1.15
2023-04-27T07:55:56.983Z,1.20
2023-04-27T07:58:25.044Z,1.15
2023-04-27T08:00:53.368Z,1.00
2023-04-27T08:03:23.904Z,1.00
2023-04-27T08:05:52.435Z,1.08
2023-04-27T08:08:20.962Z,1.00
2023-04-27T08:10:49.049Z,1.13
2023-04-27T08:13:17.191Z,1.10
2023-04-27T08:15:45.325Z,1.20
2023-04-27T08:18:13.754Z,1.17
2023-04-27T08:20:43.236Z,1.10
2023-04-27T08:23:11.485Z,0.90
2023-04-27T08:25:39.884Z,0.90
2023-04-27T08:28:08.365Z,0.75
2023-04-27T08:30:36.680Z,0.93
2023-04-27T08:33:04.928Z,0.80
2023-04-27T08:35:33.619Z,1.08
2023-04-27T08:38:03.118Z,1.10
2023-04-27T08:40:31.721Z,1.00
2023-04-27T08:43:01.252Z,1.10
2023-04-27T08:45:29.883Z,1.02
2023-04-27T08:47:57.982Z,1.17
2023-04-27T08:50:26.311Z,1.20
2023-04-27T08:52:54.492Z,0.90
2023-04-27T08:55:24.317Z,0.93
2023-04-27T08:57:56.937Z,1.20
2023-04-27T09:00:26.470Z,0.85
2023-04-27T09:02:55.291Z,1.08
2023-04-27T09:05:24.603Z,0.73
2023-04-27T09:08:00.552Z,0.93
2023-04-27T09:10:30.397Z,0.77
2023-04-27T09:13:00.368Z,1.05
2023-04-27T09:15:29.426Z,0.80
2023-04-27T09:17:58.999Z,1.20
2023-04-27T09:20:28.953Z,0.70
2023-04-27T09:22:58.823Z,0.80
2023-04-27T09:25:30.199Z,0.95
2023-04-27T09:28:00.401Z,0.90
2023-04-27T09:30:30.154Z,0.80
2023-04-27T09:33:01.267Z,0.93
2023-04-27T09:35:31.772Z,0.95
2023-04-27T09:38:01.900Z,0.90
2023-04-27T09:40:32.191Z,0.95
2023-04-27T09:43:02.229Z,0.88
2023-04-27T09:45:30.612Z,0.80
2023-04-27T09:47:59.823Z,1.48
2023-04-27T09:50:28.451Z,1.20
2023-04-27T09:52:57.194Z,0.98
2023-04-27T09:55:30.106Z,1.20
2023-04-27T09:58:17.207Z,1.38
2023-04-27T10:00:58.804Z,1.13
2023-04-27T10:03:34.534Z,0.88
2023-04-27T10:06:44.687Z,0.73
2023-04-27T10:09:13.860Z,0.95
2023-04-27T10:11:44.630Z,0.88
2023-04-27T10:14:19.654Z,1.27
2023-04-27T10:16:53.284Z,1.10
2023-04-27T10:19:22.519Z,1.17
2023-04-27T10:22:00.788Z,0.90
2023-04-27T10:24:39.778Z,1.13
2023-04-27T10:27:09.686Z,1.08
2023-04-27T10:29:41.895Z,1.23
2023-04-27T10:32:11.919Z,1.10
2023-04-27T10:34:41.426Z,1.13
2023-04-27T10:37:11.785Z,1.00
2023-04-27T10:39:48.650Z,1.08
2023-04-27T10:42:29.516Z,0.90
2023-04-27T10:45:00.025Z,1.00
2023-04-27T10:47:38.516Z,0.80
2023-04-27T10:50:08.919Z,1.00
2023-04-27T10:52:37.058Z,1.30
2023-04-27T10:55:18.572Z,0.60
2023-04-27T10:57:51.627Z,1.10
2023-04-27T11:00:32.407Z,0.80
2023-04-27T11:03:14.702Z,0.90
2023-04-27T11:05:43.833Z,0.88
2023-04-27T11:08:14.554Z,0.95
2023-04-27T11:10:46.357Z,1.08
2023-04-27T11:13:16.568Z,0.98
2023-04-27T11:15:50.866Z,1.58
2023-04-27T11:18:20.884Z,1.10
2023-04-27T11:20:51.087Z,1.00
2023-04-27T11:23:27.260Z,0.80
2023-04-27T11:25:55.833Z,0.93
2023-04-27T11:28:24.918Z,1.20
2023-04-27T11:31:01.237Z,0.85
2023-04-27T11:33:29.721Z,0.82
2023-04-27T11:35:58.220Z,1.20
2023-04-27T11:38:28.248Z,1.17
2023-04-27T11:41:04.791Z,0.90
2023-04-27T11:43:33.579Z,0.85
2023-04-27T11:46:06.135Z,0.95
2023-04-27T11:48:34.337Z,0.63
2023-04-27T11:51:02.960Z,0.70
2023-04-27T11:53:32.401Z,0.90
2023-04-27T11:56:02.244Z,0.90
2023-04-27T11:58:30.829Z,0.80
2023-04-27T12:00:59.262Z,1.20
2023-04-27T12:03:30.920Z,1.00
2023-04-27T12:06:07.679Z,0.93
2023-04-27T12:08:44.723Z,0.80
2023-04-27T12:11:13.108Z,1.00
2023-04-27T12:13:41.710Z,0.75
2023-04-27T12:16:09.859Z,0.90
2023-04-27T12:18:39.611Z,1.00
2023-04-27T12:21:08.714Z,1.10
2023-04-27T12:23:37.021Z,2.95
2023-04-27T12:26:05.319Z,1.00
2023-04-27T12:28:33.438Z,1.20
2023-04-27T12:31:05.044Z,0.73
2023-04-27T12:33:33.208Z,1.30
2023-04-27T12:36:02.684Z,0.85
2023-04-27T12:38:30.956Z,1.10
2023-04-27T12:41:01.643Z,1.08
2023-04-27T12:43:30.026Z,1.02
2023-04-27T12:45:58.472Z,0.70
2023-04-27T12:48:26.828Z,0.70
2023-04-27T12:50:55.239Z,0.80
2023-04-27T12:53:24.736Z,0.80
2023-04-27T12:55:53.849Z,0.85
2023-04-27T12:58:22.776Z,1.15
2023-04-27T13:00:50.858Z,0.80
2023-04-27T13:03:19.442Z,1.00
2023-04-27T13:05:47.633Z,0.90
2023-04-27T13:08:15.751Z,0.70
2023-04-27T13:10:45.442Z,0.70
2023-04-27T13:13:13.550Z,0.77
2023-04-27T13:15:41.890Z,0.80
2023-04-27T13:18:10.691Z,0.90
2023-04-27T13:20:39.253Z,0.82
2023-04-27T13:23:07.939Z,0.90
2023-04-27T13:25:36.408Z,0.88
2023-04-27T13:28:06.137Z,0.80
2023-04-27T13:30:34.261Z,0.70
2023-04-27T13:33:18.411Z,0.90
2023-04-27T13:35:49.637Z,1.00
2023-04-27T13:38:17.739Z,1.02
2023-04-27T13:40:45.926Z,0.70
2023-04-27T13:43:15.668Z,0.47
2023-04-27T13:45:43.782Z,0.80
2023-04-27T13:48:11.965Z,1.00
2023-04-27T13:50:40.141Z,0.82
2023-04-27T13:53:09.061Z,1.00
2023-04-27T13:55:37.256Z,1.00
2023-04-27T13:58:05.511Z,1.00
2023-04-27T14:00:35.286Z,0.70
2023-04-27T14:03:04.906Z,0.90
2023-04-27T14:05:33.425Z,0.82
2023-04-27T14:08:01.875Z,1.10
2023-04-27T14:10:29.992Z,0.95
2023-04-27T14:12:58.440Z,1.17
2023-04-27T14:15:26.567Z,0.90
2023-04-27T14:17:56.139Z,1.00
2023-04-27T14:20:24.646Z,1.17
2023-04-27T14:22:52.787Z,1.23
2023-04-27T14:25:20.921Z,0.70
2023-04-27T14:27:49.002Z,1.15
2023-04-27T14:30:17.262Z,0.80
2023-04-27T14:32:45.558Z,0.90
2023-04-27T14:35:15.074Z,1.63
2023-04-27T14:37:43.471Z,1.00
2023-04-27T14:40:12.388Z,1.00
2023-04-27T14:42:40.530Z,1.02
2023-04-27T14:45:10.286Z,1.42
2023-04-27T14:47:38.576Z,1.30
2023-04-27T14:50:08.193Z,0.98
2023-04-27T14:52:37.984Z,1.23
2023-04-27T14:55:07.264Z,0.90
2023-04-27T14:57:35.494Z,1.33
2023-04-27T15:00:09.685Z,1.10
2023-04-27T15:02:38.336Z,1.08
2023-04-27T15:05:07.197Z,1.20
2023-04-27T15:07:35.490Z,1.08
2023-04-27T15:10:05.812Z,0.90
2023-04-27T15:12:34.200Z,1.08
2023-04-27T15:15:02.746Z,1.20
2023-04-27T15:17:31.099Z,0.90
2023-04-27T15:19:59.522Z,0.88
2023-04-27T15:22:28.785Z,0.80
2023-04-27T15:24:57.297Z,0.90
2023-04-27T15:27:26.937Z,1.00
2023-04-27T15:29:55.607Z,0.98
2023-04-27T15:32:30.175Z,0.70
2023-04-27T15:34:59.239Z,0.90
2023-04-27T15:37:28.109Z,0.90
2023-04-27T15:39:56.480Z,1.00
2023-04-27T15:42:27.343Z,0.93
2023-04-27T15:44:56.207Z,0.90
2023-04-27T15:47:24.298Z,1.40
2023-04-27T15:49:57.374Z,1.00
2023-04-27T15:52:26.422Z,1.10
2023-04-27T15:54:54.806Z,0.90
2023-04-27T15:57:22.953Z,1.20
2023-04-27T15:59:52.914Z,0.88
2023-04-27T16:02:21.607Z,0.90
2023-04-27T16:04:50.191Z,1.90
2023-04-27T16:07:18.549Z,1.00
2023-04-27T16:09:46.763Z,1.65
2023-04-27T16:12:14.966Z,0.93
2023-04-27T16:14:43.030Z,1.38
2023-04-27T16:17:12.890Z,1.40
2023-04-27T16:19:40.978Z,2.65
2023-04-27T16:22:09.097Z,5.25
2023-04-27T16:24:37.214Z,2.63
2023-04-27T16:27:05.297Z,2.33
2023-04-27T16:29:33.569Z,1.52
2023-04-27T16:32:02.325Z,0.93
2023-04-27T16:34:31.978Z,0.95
2023-04-27T16:37:00.707Z,1.00
2023-04-27T16:39:28.807Z,1.00
2023-04-27T16:41:56.976Z,1.13
2023-04-27T16:44:25.112Z,1.10
2023-04-27T16:46:53.650Z,0.88
2023-04-27T16:49:21.751Z,1.15
2023-04-27T16:51:52.632Z,1.10
2023-04-27T16:54:21.095Z,1.08
2023-04-27T16:56:50.170Z,0.88
2023-04-27T16:59:18.729Z,1.15
2023-04-27T17:01:47.137Z,0.95
2023-04-27T17:04:15.390Z,1.30
2023-04-27T17:06:45.685Z,1.00
2023-04-27T17:09:15.554Z,1.45
2023-04-27T17:11:44.153Z,1.00
2023-04-27T17:14:13.837Z,1.00
2023-04-27T17:16:42.567Z,1.73
2023-04-27T17:19:12.124Z,0.90
2023-04-27T17:21:40.980Z,1.10
2023-04-27T17:24:10.482Z,1.00
2023-04-27T17:26:40.107Z,0.70
2023-04-27T17:29:08.245Z,0.70
2023-04-27T17:31:36.418Z,0.70
2023-04-27T17:34:04.821Z,0.70
2023-04-27T17:36:32.977Z,1.00
2023-04-27T17:39:02.035Z,0.70
2023-04-27T17:41:30.386Z,0.90
2023-04-27T17:44:00.227Z,0.75
2023-04-27T17:46:28.461Z,0.80
2023-04-27T17:48:56.849Z,0.80
2023-04-27T17:51:25.033Z,1.10
2023-04-27T17:53:53.101Z,0.80
2023-04-27T17:56:21.253Z,0.70
2023-04-27T17:58:49.328Z,0.73
2023-04-27T18:01:19.085Z,0.88
2023-04-27T18:03:48.886Z,0.88
2023-04-27T18:06:19.640Z,0.88
2023-04-27T18:08:47.794Z,0.98
2023-04-27T18:11:16.364Z,0.90
2023-04-27T18:13:45.370Z,0.90
2023-04-27T18:16:13.539Z,0.80
2023-04-27T18:18:43.063Z,1.10
2023-04-27T18:21:11.306Z,1.10
2023-04-27T18:23:39.937Z,1.42
2023-04-27T18:26:09.803Z,2.10
2023-04-27T18:28:41.960Z,1.30
2023-04-27T18:31:15.324Z,1.00
2023-04-27T18:33:44.989Z,1.00
2023-04-27T18:36:13.154Z,0.82
2023-04-27T18:38:41.652Z,1.00
2023-04-27T18:41:10.081Z,0.98
2023-04-27T18:43:38.280Z,1.15
2023-04-27T18:46:06.676Z,0.98
2023-04-27T18:48:34.835Z,0.88
2023-04-27T18:51:04.512Z,1.50
2023-04-27T18:53:32.890Z,1.90
2023-04-27T18:56:02.239Z,1.50
2023-04-27T18:58:30.326Z,1.70
2023-04-27T19:00:58.455Z,1.42
2023-04-27T19:03:26.961Z,1.35
2023-04-27T19:05:55.625Z,1.00
2023-04-27T19:08:25.162Z,1.10
2023-04-27T19:10:53.492Z,1.10
2023-04-27T19:13:21.848Z,1.20
2023-04-27T19:15:49.955Z,1.20
2023-04-27T19:18:18.098Z,0.88
2023-04-27T19:20:46.216Z,1.13
2023-04-27T19:23:15.065Z,1.08
2023-04-27T19:25:45.222Z,0.90
2023-04-27T19:28:13.674Z,1.20
2023-04-27T19:30:41.871Z,1.05
2023-04-27T19:33:10.109Z,1.10
2023-04-27T19:35:38.590Z,1.20
2023-04-27T19:38:07.420Z,1.33
2023-04-27T19:40:36.128Z,1.10
2023-04-27T19:43:07.081Z,1.10
2023-04-27T19:45:35.674Z,1.52
2023-04-27T19:48:04.136Z,1.02
2023-04-27T19:50:32.684Z,1.85
2023-04-27T19:53:00.872Z,1.10
2023-04-27T19:55:30.824Z,1.20
2023-04-27T19:57:59.246Z,1.15
2023-04-27T20:00:29.016Z,1.33
2023-04-27T20:02:57.206Z,0.82
2023-04-27T20:05:26.490Z,1.13
2023-04-27T20:07:54.919Z,1.20
2023-04-27T20:10:23.097Z,1.23
2023-04-27T20:12:56.738Z,0.90
2023-04-27T20:15:25.748Z,1.20
2023-04-27T20:17:55.713Z,1.17
2023-04-27T20:20:24.071Z,2.53
2023-04-27T20:22:52.434Z,2.35
2023-04-27T20:25:20.706Z,1.63
2023-04-27T20:27:48.844Z,1.52
2023-04-27T20:30:16.984Z,1.60
2023-04-27T20:32:46.526Z,1.58
2023-04-27T20:35:16.148Z,1.30
2023-04-27T20:37:44.538Z,1.30
2023-04-27T20:40:17.897Z,1.40
2023-04-27T20:42:46.761Z,1.40
2023-04-27T20:45:14.862Z,1.77
2023-04-27T20:47:43.348Z,1.63
2023-04-27T20:50:11.858Z,1.70
2023-04-27T20:52:41.838Z,1.65
2023-04-27T20:55:10.553Z,1.75
2023-04-27T20:57:38.650Z,1.67
2023-04-27T21:00:09.685Z,1.30
2023-04-27T21:02:37.964Z,1.70
2023-04-27T21:05:06.876Z,1.50
2023-04-27T21:07:35.197Z,1.50
2023-04-27T21:10:07.202Z,1.27
2023-04-27T21:12:35.888Z,1.33
2023-04-27T21:15:04.231Z,1.58
2023-04-27T21:17:32.832Z,1.35
2023-04-27T21:20:00.995Z,1.02
2023-04-27T21:22:29.130Z,1.38
2023-04-27T21:24:57.490Z,1.25
2023-04-27T21:27:29.002Z,1.33
2023-04-27T21:29:57.117Z,1.48
2023-04-27T21:32:25.296Z,1.55
2023-04-27T21:34:53.398Z,1.73
2023-04-27T21:37:21.818Z,1.30
2023-04-27T21:39:49.893Z,1.50
2023-04-27T21:42:18.394Z,1.45
2023-04-27T21:44:47.890Z,1.23
2023-04-27T21:47:16.036Z,1.40
2023-04-27T21:49:44.820Z,1.17
2023-04-27T21:52:12.905Z,1.40
2023-04-27T21:54:41.638Z,1.40
2023-04-27T21:57:09.864Z,1.52
2023-04-27T21:59:37.950Z,1.58
2023-04-27T22:02:07.456Z,1.27
2023-04-27T22:04:38.114Z,1.42
2023-04-27T22:07:06.757Z,1.42
2023-04-27T22:09:35.455Z,1.17
2023-04-27T22:12:04.374Z,1.42
2023-04-27T22:14:32.805Z,1.30
2023-04-27T22:17:01.555Z,1.38
2023-04-27T22:19:31.429Z,1.55
2023-04-27T22:21:59.547Z,1.40
2023-04-27T22:24:27.660Z,1.40
2023-04-27T22:26:56.132Z,1.63
2023-04-27T22:29:24.510Z,1.70
2023-04-27T22:31:52.874Z,4.60
2023-04-27T22:34:21.073Z,3.00
2023-04-27T22:36:51.461Z,2.30
2023-04-27T22:39:19.537Z,1.70
2023-04-27T22:41:47.946Z,2.15
2023-04-27T22:44:16.224Z,1.60
2023-04-27T22:46:44.905Z,1.52
2023-04-27T22:49:14.967Z,1.50
2023-04-27T22:51:43.926Z,1.67
2023-04-27T22:54:13.556Z,1.42
2023-04-27T22:56:41.849Z,1.27
2023-04-27T22:59:09.989Z,1.30
2023-04-27T23:01:38.261Z,1.27
2023-04-27T23:04:07.348Z,1.58
2023-04-27T23:06:35.885Z,1.38
2023-04-27T23:09:04.503Z,1.40
2023-04-27T23:11:34.108Z,1.30
2023-04-27T23:14:02.799Z,1.27
2023-04-27T23:16:32.025Z,1.75
2023-04-27T23:19:00.206Z,1.40
2023-04-27T23:21:28.378Z,2.00
2023-04-27T23:23:56.759Z,1.30
2023-04-27T23:26:24.829Z,1.50
2023-04-27T23:28:54.648Z,1.98
2023-04-27T23:31:24.737Z,1.92
2023-04-27T23:33:52.982Z,1.45
2023-04-27T23:36:21.403Z,1.70
2023-04-27T23:38:49.925Z,1.38
2023-04-27T23:41:18.008Z,1.60
2023-04-27T23:43:46.185Z,1.63
2023-04-27T23:46:15.788Z,1.50
2023-04-27T23:48:44.159Z,1.50
2023-04-27T23:51:12.226Z,1.98
2023-04-27T23:53:40.707Z,1.88
2023-04-27T23:56:17.260Z,2.00
2023-04-27T23:58:45.390Z,1.98
